createdAt,value
2023-03-26T00:02:09.828Z,97401.38
2023-03-26T00:04:38.539Z,97400.35
2023-03-26T00:07:10.555Z,97405.77
2023-03-26T00:10:03.908Z,97407.91
2023-03-26T00:12:31.821Z,97406.69
2023-03-26T00:14:59.888Z,97410.80
2023-03-26T00:17:28.478Z,97411.46
2023-03-26T00:19:57.233Z,97425.70
2023-03-26T00:22:47.171Z,97422.13
2023-03-26T00:25:15.114Z,97396.48
2023-03-26T00:27:45.627Z,97385.63
2023-03-26T00:30:14.299Z,97383.54
2023-03-26T00:32:43.612Z,97379.52
2023-03-26T00:35:24.128Z,97382.64
2023-03-26T00:37:53.653Z,97386.38
2023-03-26T00:40:21.839Z,97387.69
2023-03-26T00:42:50.755Z,97391.14
2023-03-26T00:45:21.457Z,97388.41
2023-03-26T00:47:57.902Z,97386.06
2023-03-26T00:50:25.922Z,97382.60
2023-03-26T00:52:56.004Z,97380.67
2023-03-26T00:55:24.156Z,97371.67
2023-03-26T00:58:04.146Z,97368.71
2023-03-26T01:00:36.583Z,97368.94
2023-03-26T01:03:06.625Z,97366.95
2023-03-26T01:05:34.675Z,97362.73
2023-03-26T01:08:25.745Z,97357.84
2023-03-26T01:11:02.986Z,97355.45
2023-03-26T01:13:35.959Z,97358.75
2023-03-26T01:16:10.152Z,97361.45
2023-03-26T01:18:41.219Z,97356.02
2023-03-26T01:21:13.978Z,97357.27
2023-03-26T01:23:46.825Z,97355.65
2023-03-26T01:26:28.705Z,97355.91
2023-03-26T01:29:01.836Z,97353.79
2023-03-26T01:31:43.651Z,97348.95
2023-03-26T01:34:31.352Z,97350.92
2023-03-26T01:37:30.667Z,97350.29
2023-03-26T01:40:07.805Z,97346.17
2023-03-26T01:43:04.049Z,97349.44
2023-03-26T01:45:38.331Z,97349.88
2023-03-26T01:48:07.279Z,97352.36
2023-03-26T01:50:35.333Z,97352.06
2023-03-26T01:53:04.148Z,97351.31
2023-03-26T01:55:39.800Z,97343.83
2023-03-26T01:58:35.062Z,97349.80
2023-03-26T02:01:28.033Z,97349.20
2023-03-26T02:04:34.341Z,97349.94
2023-03-26T02:07:28.828Z,97348.61
2023-03-26T02:10:02.242Z,97348.78
2023-03-26T02:12:30.775Z,97344.33
2023-03-26T02:15:01.914Z,97349.58
2023-03-26T02:17:32.718Z,97346.02
2023-03-26T02:20:06.106Z,97349.77
2023-03-26T02:22:41.054Z,97348.61
2023-03-26T02:25:13.282Z,97350.81
2023-03-26T02:27:41.873Z,97359.63
2023-03-26T02:30:15.569Z,97363.00
2023-03-26T02:32:44.259Z,97360.68
2023-03-26T02:35:13.058Z,97354.85
2023-03-26T02:37:42.336Z,97354.60
2023-03-26T02:40:17.616Z,97350.73
2023-03-26T02:42:47.568Z,97346.96
2023-03-26T02:45:15.817Z,97338.27
2023-03-26T02:48:02.567Z,97336.52
2023-03-26T02:50:44.673Z,97330.52
2023-03-26T02:53:37.691Z,97330.30
2023-03-26T02:56:35.006Z,97332.39
2023-03-26T02:59:23.446Z,97329.03
2023-03-26T03:02:03.346Z,97322.10
2023-03-26T03:04:33.388Z,97319.59
2023-03-26T03:07:01.471Z,97321.03
2023-03-26T03:09:29.505Z,97319.56
2023-03-26T03:12:17.805Z,97323.98
2023-03-26T03:14:46.033Z,97323.70
2023-03-26T03:17:13.941Z,97325.59
2023-03-26T03:19:42.662Z,97324.74
2023-03-26T03:22:11.043Z,97326.71
2023-03-26T03:24:40.021Z,97320.30
2023-03-26T03:27:08.018Z,97322.63
2023-03-26T03:29:40.147Z,97318.39
2023-03-26T03:32:34.477Z,97316.23
2023-03-26T03:35:05.473Z,97311.43
2023-03-26T03:37:33.707Z,97306.13
2023-03-26T03:40:01.830Z,97311.17
2023-03-26T03:42:32.273Z,97314.38
2023-03-26T03:45:03.280Z,97315.85
2023-03-26T03:48:02.117Z,97316.75
2023-03-26T03:50:39.193Z,97317.24
2023-03-26T03:53:29.039Z,97325.47
2023-03-26T03:55:59.965Z,97328.86
2023-03-26T03:58:41.869Z,97329.48
2023-03-26T04:01:13.658Z,97337.85
2023-03-26T04:03:48.939Z,97339.02
2023-03-26T04:06:19.112Z,97339.30
2023-03-26T04:08:50.092Z,97334.29
2023-03-26T04:11:18.264Z,97329.28
2023-03-26T04:14:05.997Z,97335.88
2023-03-26T04:16:52.812Z,97335.63
2023-03-26T04:19:21.514Z,97335.91
2023-03-26T04:21:49.790Z,97331.02
2023-03-26T04:24:22.651Z,97330.86
2023-03-26T04:27:16.646Z,97328.00
2023-03-26T04:29:49.841Z,97326.46
2023-03-26T04:32:30.022Z,97330.88
2023-03-26T04:35:03.948Z,97330.80
2023-03-26T04:37:40.134Z,97333.94
2023-03-26T04:40:22.352Z,97337.57
2023-03-26T04:43:22.885Z,97335.75
2023-03-26T04:45:52.576Z,97331.59
2023-03-26T04:48:22.135Z,97326.34
2023-03-26T04:50:50.473Z,97331.14
2023-03-26T04:53:22.180Z,97326.99
2023-03-26T04:56:27.925Z,97331.92
2023-03-26T04:59:30.250Z,97335.32
2023-03-26T05:02:00.357Z,97328.62
2023-03-26T05:04:30.978Z,97317.20
2023-03-26T05:06:59.251Z,97317.68
2023-03-26T05:09:34.404Z,97317.98
2023-03-26T05:12:22.770Z,97318.89
2023-03-26T05:15:13.267Z,97320.23
2023-03-26T05:18:13.496Z,97324.02
2023-03-26T05:20:47.590Z,97328.61
2023-03-26T05:23:17.111Z,97328.27
2023-03-26T05:26:02.592Z,97332.67
2023-03-26T05:28:30.641Z,97327.30
2023-03-26T05:31:03.307Z,97328.13
2023-03-26T05:33:35.115Z,97322.36
2023-03-26T05:36:15.694Z,97327.61
2023-03-26T05:39:04.095Z,97326.59
2023-03-26T05:41:55.566Z,97329.02
2023-03-26T05:44:28.529Z,97332.74
2023-03-26T05:46:56.836Z,97333.66
2023-03-26T05:49:26.858Z,97330.58
2023-03-26T05:51:55.594Z,97328.83
2023-03-26T05:54:42.984Z,97327.33
2023-03-26T05:57:35.560Z,97332.04
2023-03-26T06:00:24.440Z,97335.65
2023-03-26T06:02:56.891Z,97335.86
2023-03-26T06:05:50.213Z,97339.92
2023-03-26T06:08:22.618Z,97339.92
2023-03-26T06:11:02.788Z,97339.17
2023-03-26T06:13:34.452Z,97338.23
2023-03-26T06:16:02.849Z,97333.41
2023-03-26T06:18:46.141Z,97337.67
2023-03-26T06:21:23.351Z,97334.86
2023-03-26T06:23:59.612Z,97332.83
2023-03-26T06:26:37.241Z,97334.09
2023-03-26T06:29:22.176Z,97340.40
2023-03-26T06:32:06.164Z,97339.03
2023-03-26T06:34:47.921Z,97338.88
2023-03-26T06:37:16.930Z,97339.55
2023-03-26T06:39:46.261Z,97340.14
2023-03-26T06:43:06.830Z,97336.58
2023-03-26T06:45:30.488Z,97338.73
2023-03-26T06:48:16.881Z,97340.50
2023-03-26T06:51:17.264Z,97346.79
2023-03-26T06:54:04.340Z,97343.84
2023-03-26T06:56:49.427Z,97344.64
2023-03-26T06:59:38.434Z,97343.13
2023-03-26T07:02:25.461Z,97343.46
2023-03-26T07:05:13.265Z,97343.55
2023-03-26T07:07:59.807Z,97343.84
2023-03-26T07:10:47.081Z,97340.91
2023-03-26T07:13:35.641Z,97344.02
2023-03-26T07:16:23.127Z,97347.30
2023-03-26T07:19:10.604Z,97353.11
2023-03-26T07:21:41.294Z,97350.48
2023-03-26T07:24:24.369Z,97343.55
2023-03-26T07:27:32.251Z,97349.79
2023-03-26T07:30:03.404Z,97349.70
2023-03-26T07:33:01.759Z,97351.38
2023-03-26T07:36:21.172Z,97345.64
2023-03-26T07:39:29.158Z,97344.25
2023-03-26T07:42:44.943Z,97354.27
2023-03-26T07:45:48.811Z,97354.67
2023-03-26T07:48:43.962Z,97356.70
2023-03-26T07:51:20.670Z,97353.71
2023-03-26T07:54:07.059Z,97354.80
2023-03-26T07:56:57.094Z,97359.90
2023-03-26T07:59:57.674Z,97364.79
2023-03-26T08:02:55.022Z,97363.46
2023-03-26T08:06:11.484Z,97363.23
2023-03-26T08:09:12.739Z,97362.81
2023-03-26T08:12:07.374Z,97354.80
2023-03-26T08:14:41.680Z,97355.75
2023-03-26T08:17:16.331Z,97355.24
2023-03-26T08:19:49.304Z,97355.54
2023-03-26T08:22:26.477Z,97359.92
2023-03-26T08:25:17.984Z,97352.13
2023-03-26T08:28:04.885Z,97354.67
2023-03-26T08:30:35.291Z,97358.20
2023-03-26T08:33:27.643Z,97356.15
2023-03-26T08:35:56.101Z,97348.77
2023-03-26T08:38:24.250Z,97342.12
2023-03-26T08:41:30.956Z,97342.89
2023-03-26T08:44:23.720Z,97347.45
2023-03-26T08:47:13.983Z,97349.75
2023-03-26T08:49:44.836Z,97346.32
2023-03-26T08:52:40.415Z,97348.08
2023-03-26T08:55:17.441Z,97350.30
2023-03-26T08:58:03.648Z,97344.23
2023-03-26T09:00:58.093Z,97340.69
2023-03-26T09:04:03.922Z,97331.73
2023-03-26T09:06:32.392Z,97333.93
2023-03-26T09:09:25.207Z,97334.06
2023-03-26T09:12:12.390Z,97330.17
2023-03-26T09:14:40.734Z,97329.84
2023-03-26T09:17:24.351Z,97330.77
2023-03-26T09:20:05.354Z,97323.06
2023-03-26T09:22:57.712Z,97320.00
2023-03-26T09:25:50.485Z,97328.97
2023-03-26T09:28:27.699Z,97336.67
2023-03-26T09:31:17.440Z,97340.14
2023-03-26T09:34:00.926Z,97341.47
2023-03-26T09:36:54.584Z,97341.23
2023-03-26T09:39:39.178Z,97341.06
2023-03-26T09:42:34.249Z,97329.39
2023-03-26T09:45:22.797Z,97326.31
2023-03-26T09:48:09.798Z,97323.80
2023-03-26T09:51:08.497Z,97318.01
2023-03-26T09:54:00.376Z,97310.95
2023-03-26T09:56:41.453Z,97322.14
2023-03-26T09:59:24.461Z,97319.67
2023-03-26T10:02:46.733Z,97316.81
2023-03-26T10:05:24.549Z,97321.31
2023-03-26T10:08:04.787Z,97320.46
2023-03-26T10:10:51.491Z,97327.30
2023-03-26T10:13:38.407Z,97321.36
2023-03-26T10:16:15.533Z,97321.88
2023-03-26T10:19:00.313Z,97324.02
2023-03-26T10:21:56.300Z,97320.62
2023-03-26T10:24:44.106Z,97322.29
2023-03-26T10:27:12.054Z,97317.42
2023-03-26T10:29:48.924Z,97317.73
2023-03-26T10:32:20.020Z,97312.70
2023-03-26T10:35:02.141Z,97311.74
2023-03-26T10:37:38.972Z,97314.42
2023-03-26T10:40:30.409Z,97315.64
2023-03-26T10:43:32.284Z,97319.66
2023-03-26T10:46:18.693Z,97311.67
2023-03-26T10:48:49.340Z,97319.05
2023-03-26T10:51:31.600Z,97313.29
2023-03-26T10:54:15.766Z,97311.40
2023-03-26T10:56:49.683Z,97305.48
2023-03-26T10:59:19.246Z,97295.49
2023-03-26T11:02:04.985Z,97289.97
2023-03-26T11:04:55.041Z,97293.49
2023-03-26T11:07:35.446Z,97280.40
2023-03-26T11:10:17.280Z,97278.89
2023-03-26T11:12:53.410Z,97278.61
2023-03-26T11:15:39.609Z,97276.64
2023-03-26T11:18:26.107Z,97275.67
2023-03-26T11:21:19.040Z,97268.02
2023-03-26T11:24:05.447Z,97272.73
2023-03-26T11:26:46.736Z,97269.64
2023-03-26T11:29:44.322Z,97272.16
2023-03-26T11:32:16.841Z,97268.70
2023-03-26T11:35:02.547Z,97264.58
2023-03-26T11:37:40.190Z,97259.48
2023-03-26T11:40:46.921Z,97260.48
2023-03-26T11:43:28.249Z,97254.77
2023-03-26T11:45:56.712Z,97254.91
2023-03-26T11:49:03.501Z,97246.42
2023-03-26T11:51:34.078Z,97243.28
2023-03-26T11:54:04.140Z,97241.20
2023-03-26T11:56:41.330Z,97242.63
2023-03-26T11:59:45.276Z,97239.42
2023-03-26T12:02:38.381Z,97228.40
2023-03-26T12:05:26.776Z,97228.89
2023-03-26T12:07:58.380Z,97226.77
2023-03-26T12:10:39.501Z,97217.61
2023-03-26T12:13:22.133Z,97219.30
2023-03-26T12:15:50.424Z,97217.14
2023-03-26T12:18:27.157Z,97215.30
2023-03-26T12:21:08.170Z,97206.21
2023-03-26T12:23:43.841Z,97202.02
2023-03-26T12:26:22.148Z,97196.55
2023-03-26T12:28:51.394Z,97195.02
2023-03-26T12:31:20.422Z,97184.34
2023-03-26T12:34:07.935Z,97177.66
2023-03-26T12:36:36.674Z,97178.98
2023-03-26T12:40:07.911Z,97174.45
2023-03-26T12:44:45.934Z,97175.31
2023-03-26T12:45:23.902Z,97165.21
2023-03-26T12:48:00.659Z,97160.30
2023-03-26T12:51:18.915Z,97154.89
2023-03-26T12:54:15.470Z,97150.86
2023-03-26T12:57:11.717Z,97148.75
2023-03-26T12:59:52.979Z,97140.25
2023-03-26T13:02:45.840Z,97141.43
2023-03-26T13:05:32.486Z,97134.06
2023-03-26T13:08:21.615Z,97133.52
2023-03-26T13:10:58.682Z,97136.72
2023-03-26T13:13:45.862Z,97135.72
2023-03-26T13:16:33.367Z,97137.36
2023-03-26T13:19:09.062Z,97135.30
2023-03-26T13:22:14.872Z,97136.03
2023-03-26T13:25:20.335Z,97132.79
2023-03-26T13:28:13.547Z,97132.39
2023-03-26T13:30:44.499Z,97125.93
2023-03-26T13:33:15.358Z,97119.08
2023-03-26T13:36:24.552Z,97116.44
2023-03-26T13:39:27.818Z,97114.08
2023-03-26T13:42:33.849Z,97113.09
2023-03-26T13:45:21.547Z,97106.27
2023-03-26T13:47:52.417Z,97108.15
2023-03-26T13:50:32.960Z,97110.31
2023-03-26T13:53:12.492Z,97107.27
2023-03-26T13:55:46.213Z,97108.69
2023-03-26T13:58:24.240Z,97103.49
2023-03-26T14:01:02.177Z,97104.52
2023-03-26T14:03:52.537Z,97102.73
2023-03-26T14:06:23.869Z,97102.08
2023-03-26T14:08:59.066Z,97099.15
2023-03-26T14:11:49.214Z,97096.44
2023-03-26T14:14:38.659Z,97098.52
2023-03-26T14:17:15.818Z,97094.66
2023-03-26T14:20:22.047Z,97092.16
2023-03-26T14:23:09.228Z,97095.27
2023-03-26T14:26:01.658Z,97086.30
2023-03-26T14:29:02.386Z,97084.36
2023-03-26T14:31:46.062Z,97081.45
2023-03-26T14:34:30.386Z,97078.01
2023-03-26T14:37:27.557Z,97075.49
2023-03-26T14:40:54.162Z,97074.63
2023-03-26T14:43:24.868Z,97065.85
2023-03-26T14:46:07.586Z,97067.73
2023-03-26T14:48:54.300Z,97065.05
2023-03-26T14:51:59.073Z,97063.87
2023-03-26T14:54:31.425Z,97063.00
2023-03-26T14:57:29.055Z,97060.58
2023-03-26T15:00:15.841Z,97059.17
2023-03-26T15:03:07.668Z,97050.90
2023-03-26T15:06:29.116Z,97048.84
2023-03-26T15:09:25.147Z,97055.29
2023-03-26T15:12:36.067Z,97054.70
2023-03-26T15:15:16.498Z,97053.93
2023-03-26T15:17:53.510Z,97048.35
2023-03-26T15:20:49.702Z,97048.06
2023-03-26T15:23:55.778Z,97045.54
2023-03-26T15:26:48.764Z,97038.11
2023-03-26T15:29:32.008Z,97036.75
2023-03-26T15:32:12.097Z,97034.97
2023-03-26T15:35:11.307Z,97033.64
2023-03-26T15:38:09.182Z,97037.10
2023-03-26T15:40:46.202Z,97035.56
2023-03-26T15:43:17.961Z,97032.02
2023-03-26T15:45:54.527Z,97034.55
2023-03-26T15:48:32.536Z,97036.96
2023-03-26T15:51:46.878Z,97031.80
2023-03-26T15:54:25.781Z,97028.39
2023-03-26T15:57:16.742Z,97026.04
2023-03-26T16:00:15.455Z,97024.52
2023-03-26T16:03:15.629Z,97020.25
2023-03-26T16:06:14.249Z,97018.09
2023-03-26T16:09:00.608Z,97018.36
2023-03-26T16:11:49.800Z,97014.43
2023-03-26T16:14:34.522Z,97014.48
2023-03-26T16:17:08.136Z,97013.55
2023-03-26T16:19:49.620Z,97008.09
2023-03-26T16:22:52.116Z,97011.14
2023-03-26T16:25:29.616Z,97001.89
2023-03-26T16:28:13.049Z,97006.04
2023-03-26T16:30:42.335Z,97008.32
2023-03-26T16:33:15.679Z,97004.43
2023-03-26T16:36:25.919Z,97004.27
2023-03-26T16:39:15.907Z,97006.55
2023-03-26T16:41:50.409Z,97004.30
2023-03-26T16:44:21.440Z,97006.45
2023-03-26T16:46:55.581Z,96999.13
2023-03-26T16:50:08.737Z,97001.21
2023-03-26T16:53:25.757Z,96999.02
2023-03-26T16:56:04.463Z,97000.41
2023-03-26T16:58:58.682Z,96998.85
2023-03-26T17:02:10.318Z,97002.08
2023-03-26T17:04:38.947Z,97005.95
2023-03-26T17:07:37.161Z,97008.45
2023-03-26T17:10:37.680Z,97006.98
2023-03-26T17:13:23.550Z,97007.68
2023-03-26T17:16:18.829Z,97009.99
2023-03-26T17:19:04.970Z,97008.52
2023-03-26T17:22:11.235Z,97009.79
2023-03-26T17:24:49.600Z,97008.45
2023-03-26T17:27:58.582Z,97009.77
2023-03-26T17:30:43.351Z,97005.40
2023-03-26T17:33:26.945Z,97004.36
2023-03-26T17:36:13.462Z,97006.56
2023-03-26T17:38:45.439Z,97001.76
2023-03-26T17:41:34.468Z,97003.08
2023-03-26T17:44:35.946Z,97006.42
2023-03-26T17:47:13.574Z,97017.92
2023-03-26T17:49:44.433Z,97012.91
2023-03-26T17:52:25.917Z,97003.27
2023-03-26T17:54:57.172Z,97009.44
2023-03-26T17:57:40.306Z,97011.27
2023-03-26T18:00:16.880Z,97014.92
2023-03-26T18:02:54.241Z,97012.29
2023-03-26T18:05:26.722Z,97015.70
2023-03-26T18:08:30.275Z,97012.61
2023-03-26T18:11:25.426Z,97010.36
2023-03-26T18:14:19.596Z,97008.85
2023-03-26T18:16:59.440Z,97013.43
2023-03-26T18:19:30.169Z,97012.16
2023-03-26T18:22:07.590Z,97015.09
2023-03-26T18:24:41.289Z,97013.13
2023-03-26T18:27:22.264Z,97015.36
2023-03-26T18:30:03.170Z,97011.46
2023-03-26T18:32:33.841Z,97010.59
2023-03-26T18:35:13.659Z,97009.54
2023-03-26T18:37:44.318Z,97007.70
2023-03-26T18:40:22.230Z,97002.75
2023-03-26T18:42:53.492Z,97009.75
2023-03-26T18:45:37.471Z,97006.49
2023-03-26T18:48:19.294Z,97004.04
2023-03-26T18:51:04.856Z,97005.48
2023-03-26T18:53:49.396Z,97004.95
2023-03-26T18:56:35.322Z,97005.41
2023-03-26T18:59:06.866Z,97010.98
2023-03-26T19:01:37.620Z,97013.80
2023-03-26T19:04:08.174Z,97011.41
2023-03-26T19:06:41.857Z,97008.61
2023-03-26T19:09:24.214Z,97005.98
2023-03-26T19:12:08.254Z,97006.27
2023-03-26T19:14:54.010Z,96998.94
2023-03-26T19:17:24.466Z,96998.71
2023-03-26T19:19:52.998Z,96996.38
2023-03-26T19:22:23.434Z,96997.44
2023-03-26T19:25:00.993Z,96995.66
2023-03-26T19:27:29.798Z,97002.31
2023-03-26T19:29:57.948Z,96997.08
2023-03-26T19:32:32.982Z,96991.23
2023-03-26T19:35:04.698Z,96989.80
2023-03-26T19:37:33.383Z,96987.16
2023-03-26T19:40:14.331Z,96979.10
2023-03-26T19:42:44.773Z,96979.13
2023-03-26T19:45:18.440Z,96980.08
2023-03-26T19:47:57.357Z,96977.13
2023-03-26T19:50:34.283Z,96973.48
2023-03-26T19:53:15.923Z,96972.67
2023-03-26T19:56:11.998Z,96972.67
2023-03-26T19:58:41.805Z,96970.16
2023-03-26T20:01:19.198Z,96968.39
2023-03-26T20:03:51.660Z,96967.19
2023-03-26T20:06:27.848Z,96965.95
2023-03-26T20:09:02.240Z,96965.77
2023-03-26T20:11:36.679Z,96967.39
2023-03-26T20:14:14.065Z,96961.75
2023-03-26T20:16:44.395Z,96962.01
2023-03-26T20:19:15.027Z,96961.70
2023-03-26T20:21:44.487Z,96960.48
2023-03-26T20:24:16.060Z,96959.10
2023-03-26T20:26:45.739Z,96960.02
2023-03-26T20:29:14.644Z,96958.93
2023-03-26T20:31:43.734Z,96950.53
2023-03-26T20:34:19.093Z,96954.66
2023-03-26T20:36:47.758Z,96947.45
2023-03-26T20:39:15.777Z,96948.80
2023-03-26T20:41:48.905Z,96942.48
2023-03-26T20:44:21.239Z,96936.95
2023-03-26T20:46:51.051Z,96932.27
2023-03-26T20:49:22.234Z,96928.53
2023-03-26T20:51:50.301Z,96928.59
2023-03-26T20:54:21.630Z,96927.02
2023-03-26T20:56:50.501Z,96922.67
2023-03-26T20:59:22.292Z,96925.45
2023-03-26T21:01:51.590Z,96924.14
2023-03-26T21:04:20.523Z,96918.72
2023-03-26T21:06:49.003Z,96911.11
2023-03-26T21:09:23.840Z,96906.30
2023-03-26T21:12:14.846Z,96899.92
2023-03-26T21:14:44.386Z,96896.86
2023-03-26T21:17:20.060Z,96891.98
2023-03-26T21:19:48.553Z,96886.88
2023-03-26T21:22:30.708Z,96887.28
2023-03-26T21:25:13.171Z,96889.52
2023-03-26T21:27:51.762Z,96890.94
2023-03-26T21:30:19.948Z,96890.58
2023-03-26T21:32:48.206Z,96889.73
2023-03-26T21:35:16.752Z,96898.36
2023-03-26T21:37:48.778Z,96894.15
2023-03-26T21:40:18.348Z,96896.79
2023-03-26T21:42:52.029Z,96896.49
2023-03-26T21:45:21.153Z,96895.60
2023-03-26T21:47:49.941Z,96892.95
2023-03-26T21:50:21.921Z,96892.86
2023-03-26T21:52:51.838Z,96887.91
2023-03-26T21:55:22.216Z,96886.34
2023-03-26T21:58:10.558Z,96884.69
2023-03-26T22:00:45.903Z,96881.60
2023-03-26T22:03:52.535Z,96877.00
2023-03-26T22:06:31.398Z,96877.38
2023-03-26T22:08:59.846Z,96876.14
2023-03-26T22:11:27.856Z,96870.88
2023-03-26T22:13:56.968Z,96865.77
2023-03-26T22:16:25.302Z,96866.86
2023-03-26T22:18:53.967Z,96869.09
2023-03-26T22:21:23.672Z,96870.81
2023-03-26T22:23:53.075Z,96866.17
2023-03-26T22:26:23.326Z,96870.59
2023-03-26T22:28:51.334Z,96870.77
2023-03-26T22:31:19.533Z,96872.05
2023-03-26T22:33:47.505Z,96864.58
2023-03-26T22:36:23.513Z,96867.19
2023-03-26T22:38:54.257Z,96866.25
2023-03-26T22:41:23.597Z,96863.59
2023-03-26T22:43:54.909Z,96857.70
2023-03-26T22:46:24.268Z,96856.01
2023-03-26T22:48:52.520Z,96858.05
2023-03-26T22:51:20.575Z,96859.64
2023-03-26T22:53:48.475Z,96848.61
2023-03-26T22:56:17.348Z,96848.41
2023-03-26T22:58:45.614Z,96845.95
2023-03-26T23:01:21.429Z,96844.10
2023-03-26T23:03:49.740Z,96843.02
2023-03-26T23:06:18.102Z,96836.07
2023-03-26T23:08:46.363Z,96831.83
2023-03-26T23:11:19.500Z,96835.70
2023-03-26T23:13:48.328Z,96839.33
2023-03-26T23:16:17.633Z,96836.38
2023-03-26T23:18:45.719Z,96836.73
2023-03-26T23:21:22.728Z,96833.93
2023-03-26T23:23:52.343Z,96832.91
2023-03-26T23:26:20.500Z,96827.33
2023-03-26T23:28:48.626Z,96823.48
2023-03-26T23:31:17.173Z,96819.29
2023-03-26T23:33:47.966Z,96814.29
2023-03-26T23:36:18.570Z,96813.12
2023-03-26T23:38:49.096Z,96809.95
2023-03-26T23:41:21.727Z,96807.60
2023-03-26T23:43:55.523Z,96804.42
2023-03-26T23:46:30.980Z,96802.02
2023-03-26T23:49:02.717Z,96796.51
2023-03-26T23:51:30.925Z,96801.80
2023-03-26T23:53:59.929Z,96801.25
2023-03-26T23:56:29.967Z,96802.08
2023-03-26T23:58:59.412Z,96797.80
